Impacts TAF Board
For situational awareness. Not to be used for flight planning purposes.
IDs:

KPHX - Phoenix/Sky Harbor, AZ, US

Issued at 1720 UTC 02 Oct 2022
Updated at 1819 UTC 02 Oct 2022
Potential Impact None Slight Moderate High
Time<<03/19Z 03/20Z 03/21Z 03/22Z 03/23Z 04/00Z 04/01Z 04/02Z 04/03Z 04/04Z 04/05Z 04/06Z 04/07Z
Type PRVL PRVL PRVL PRVL PRVL
VIS >6 >6 >6 >6 >6
CIG -- -- -- -- --
Cover FEW FEW FEW FEW FEW
FltCat VFR VFR VFR VFR VFR
WX -- -- -- -- --
WDir 140 140 280 280 280
WSpd 8 8 8 8 8
WGst -- -- -- -- --
WSHgt -- -- -- -- --
WSDir -- -- -- -- --
WSSpd -- -- -- -- --
Raw TAF
KPHX 021720Z 0218/0324 16007KT P6SM FEW100 FEW150
  FM022200 21007KT P6SM FEW100 FEW150
  FM030000 25006KT P6SM FEW100 FEW150
  FM030400 10005KT P6SM FEW100 SCT150 SCT250
  FM031700 14008KT P6SM FEW100 FEW150
  FM032100 28008KT P6SM FEW100 FEW150


METAR Board
Radar Display
Forecast Discussion
For situational awareness. Not to be used for flight planning purposes.